createdAt,value
2023-05-18T00:03:48.858Z,51.95
2023-05-18T00:08:51.649Z,51.80
2023-05-18T00:13:54.116Z,50.26
2023-05-18T00:18:57.062Z,52.74
2023-05-18T00:23:59.498Z,56.51
2023-05-18T00:29:02.029Z,56.70
2023-05-18T00:34:08.179Z,53.50
2023-05-18T00:39:10.971Z,52.07
2023-05-18T00:44:13.370Z,50.92
2023-05-18T00:49:16.226Z,50.18
2023-05-18T00:54:19.791Z,50.91
2023-05-18T00:59:22.528Z,50.84
2023-05-18T01:04:26.318Z,50.54
2023-05-18T01:09:28.736Z,50.66
2023-05-18T01:14:38.608Z,50.54
2023-05-18T01:19:52.681Z,50.86
2023-05-18T01:25:00.291Z,50.82
2023-05-18T01:30:03.694Z,51.24
2023-05-18T01:35:06.950Z,51.05
2023-05-18T01:40:09.913Z,50.84
2023-05-18T01:45:21.028Z,51.42
2023-05-18T01:50:38.243Z,51.68
2023-05-18T01:55:42.070Z,51.61
2023-05-18T02:00:46.564Z,51.60
2023-05-18T02:05:48.907Z,51.87
2023-05-18T02:10:51.894Z,52.26
2023-05-18T02:15:56.577Z,52.06
2023-05-18T02:21:00.368Z,52.55
2023-05-18T02:26:03.108Z,52.47
2023-05-18T02:31:09.882Z,52.41
2023-05-18T02:36:14.038Z,52.84
2023-05-18T02:41:16.354Z,52.85
2023-05-18T02:46:18.699Z,52.95
2023-05-18T02:51:22.330Z,52.92
2023-05-18T02:56:25.200Z,53.49
2023-05-18T03:01:28.005Z,54.17
2023-05-18T03:06:30.830Z,55.89
2023-05-18T03:11:33.208Z,60.11
2023-05-18T03:16:35.622Z,61.08
2023-05-18T03:21:38.074Z,58.29
2023-05-18T03:26:42.291Z,56.47
2023-05-18T03:31:44.815Z,55.84
2023-05-18T03:36:47.824Z,54.89
2023-05-18T03:41:50.156Z,54.49
2023-05-18T03:46:52.526Z,62.10
2023-05-18T03:51:54.936Z,62.14
2023-05-18T03:56:57.281Z,59.76
2023-05-18T04:02:00.638Z,58.04
2023-05-18T04:07:06.480Z,56.83
2023-05-18T04:12:09.205Z,55.95
2023-05-18T04:17:11.602Z,55.42
2023-05-18T04:22:14.017Z,55.09
2023-05-18T04:27:16.439Z,55.23
2023-05-18T04:32:19.294Z,54.99
2023-05-18T04:37:21.618Z,54.71
2023-05-18T04:42:23.848Z,54.33
2023-05-18T04:47:26.163Z,54.28
2023-05-18T04:52:31.221Z,54.08
2023-05-18T04:57:33.571Z,53.85
2023-05-18T05:02:36.149Z,53.40
2023-05-18T05:07:38.665Z,53.30
2023-05-18T05:12:42.166Z,53.43
2023-05-18T05:17:44.506Z,53.46
2023-05-18T05:22:46.939Z,53.14
2023-05-18T05:27:49.275Z,52.67
2023-05-18T05:32:52.214Z,52.58
2023-05-18T05:37:54.540Z,52.36
2023-05-18T05:42:56.857Z,52.64
2023-05-18T05:47:59.274Z,52.28
2023-05-18T05:53:02.023Z,52.19
2023-05-18T05:58:05.921Z,51.53
2023-05-18T06:03:08.764Z,51.00
2023-05-18T06:08:11.111Z,51.11
2023-05-18T06:13:13.427Z,50.81
2023-05-18T06:18:15.837Z,50.33
2023-05-18T06:23:23.069Z,50.13
2023-05-18T06:28:25.430Z,49.56
2023-05-18T06:33:28.957Z,49.41
2023-05-18T06:38:31.874Z,49.15
2023-05-18T06:43:34.218Z,48.33
2023-05-18T06:48:37.682Z,48.29
2023-05-18T06:53:39.981Z,47.79
2023-05-18T06:58:43.168Z,47.44
2023-05-18T07:03:45.708Z,47.24
2023-05-18T07:08:49.188Z,46.61
2023-05-18T07:13:51.804Z,45.40
2023-05-18T07:18:54.095Z,45.81
2023-05-18T07:23:56.403Z,45.71
2023-05-18T07:28:58.871Z,45.56
2023-05-18T07:34:01.372Z,45.21
2023-05-18T07:39:04.007Z,45.70
2023-05-18T07:44:06.283Z,45.06
2023-05-18T07:49:08.568Z,44.74
2023-05-18T07:54:10.894Z,43.37
2023-05-18T07:59:13.466Z,43.60
2023-05-18T08:04:16.202Z,43.73
2023-05-18T08:09:18.567Z,43.33
2023-05-18T08:14:21.213Z,42.93
2023-05-18T08:19:23.593Z,42.47
2023-05-18T08:24:26.078Z,41.63
2023-05-18T08:29:28.492Z,41.31
2023-05-18T08:34:30.936Z,40.36
2023-05-18T08:39:33.398Z,40.70
2023-05-18T08:45:13.440Z,40.88
2023-05-18T08:50:18.340Z,40.17
2023-05-18T08:55:21.390Z,39.76
2023-05-18T09:00:27.256Z,39.25
2023-05-18T09:05:30.241Z,38.32
2023-05-18T09:10:34.165Z,36.53
2023-05-18T09:15:36.443Z,36.06
2023-05-18T09:20:39.222Z,36.31
2023-05-18T09:25:46.429Z,36.20
2023-05-18T09:30:48.655Z,35.65
2023-05-18T09:35:52.718Z,35.50
2023-05-18T09:40:54.979Z,34.69
2023-05-18T09:45:57.562Z,33.60
2023-05-18T09:51:00.340Z,33.31
2023-05-18T09:56:07.119Z,32.66
2023-05-18T10:01:09.432Z,32.02
2023-05-18T10:06:17.782Z,32.34
2023-05-18T10:11:20.892Z,31.77
2023-05-18T10:16:25.973Z,31.85
2023-05-18T10:21:31.564Z,31.85
2023-05-18T10:26:39.242Z,30.66
2023-05-18T10:31:43.247Z,30.33
2023-05-18T10:36:45.656Z,31.88
2023-05-18T10:41:49.726Z,32.50
2023-05-18T10:46:52.644Z,32.54
2023-05-18T10:51:55.599Z,32.94
2023-05-18T10:56:58.165Z,32.96
2023-05-18T11:02:02.596Z,33.48
2023-05-18T11:07:05.621Z,33.22
2023-05-18T11:12:14.590Z,32.79
2023-05-18T11:17:23.317Z,32.30
2023-05-18T11:22:58.802Z,32.44
2023-05-18T11:28:05.085Z,32.22
2023-05-18T11:33:15.268Z,32.33
2023-05-18T11:38:17.880Z,31.61
2023-05-18T11:43:24.590Z,31.11
2023-05-18T11:48:32.564Z,31.19
2023-05-18T11:53:35.551Z,31.59
2023-05-18T11:58:39.106Z,32.09
2023-05-18T12:03:41.567Z,32.14
2023-05-18T12:08:46.447Z,32.29
2023-05-18T12:13:52.384Z,31.93
2023-05-18T12:18:54.874Z,31.87
2023-05-18T12:24:01.047Z,32.12
2023-05-18T12:29:03.590Z,32.27
2023-05-18T12:34:06.891Z,32.81
2023-05-18T12:39:09.367Z,32.48
2023-05-18T12:44:11.687Z,34.90
2023-05-18T12:49:14.044Z,34.79
2023-05-18T12:54:16.583Z,34.70
2023-05-18T12:59:22.188Z,35.23
2023-05-18T13:04:24.639Z,34.83
2023-05-18T13:09:26.841Z,34.64
2023-05-18T13:14:31.288Z,35.79
2023-05-18T13:19:36.437Z,35.04
2023-05-18T13:24:39.525Z,35.95
2023-05-18T13:29:42.333Z,36.65
2023-05-18T13:34:44.552Z,36.14
2023-05-18T13:39:46.687Z,35.90
2023-05-18T13:44:48.960Z,35.46
2023-05-18T13:49:51.169Z,33.24
2023-05-18T13:54:53.416Z,31.91
2023-05-18T13:59:55.593Z,31.72
2023-05-18T14:04:58.905Z,31.61
2023-05-18T14:10:01.095Z,33.85
2023-05-18T14:15:04.278Z,33.53
2023-05-18T14:20:07.304Z,34.14
2023-05-18T14:25:09.739Z,36.62
2023-05-18T14:30:12.443Z,38.02
2023-05-18T14:35:14.675Z,39.59
2023-05-18T14:40:16.965Z,39.91
2023-05-18T14:45:19.250Z,40.55
2023-05-18T14:50:21.512Z,40.44
2023-05-18T14:55:23.684Z,39.81
2023-05-18T15:00:25.966Z,39.55
2023-05-18T15:05:28.254Z,39.78
2023-05-18T15:10:30.653Z,38.75
2023-05-18T15:15:33.598Z,38.00
2023-05-18T15:20:37.113Z,37.19
2023-05-18T15:25:41.681Z,36.88
2023-05-18T15:30:43.879Z,37.34
2023-05-18T15:35:46.924Z,38.37
2023-05-18T15:40:50.759Z,38.95
2023-05-18T15:45:53.909Z,39.62
2023-05-18T15:50:56.078Z,39.44
2023-05-18T15:55:59.589Z,39.73
2023-05-18T16:01:02.063Z,41.12
2023-05-18T16:06:04.446Z,42.68
2023-05-18T16:11:07.453Z,43.66
2023-05-18T16:16:10.825Z,43.68
2023-05-18T16:21:13.688Z,44.00
2023-05-18T16:26:16.099Z,44.59
2023-05-18T16:31:18.283Z,44.52
2023-05-18T16:36:21.328Z,44.74
2023-05-18T16:41:23.678Z,44.71
2023-05-18T16:46:26.145Z,44.68
2023-05-18T16:51:28.358Z,45.11
2023-05-18T16:56:30.592Z,44.97
2023-05-18T17:01:33.647Z,44.50
2023-05-18T17:06:36.494Z,45.13
2023-05-18T17:11:38.695Z,45.39
2023-05-18T17:16:41.456Z,45.88
2023-05-18T17:21:43.792Z,45.71
2023-05-18T17:26:46.024Z,45.26
2023-05-18T17:31:48.302Z,45.24
2023-05-18T17:36:50.590Z,45.69
2023-05-18T17:41:54.538Z,46.20
2023-05-18T17:46:57.482Z,46.54
2023-05-18T17:51:59.843Z,47.37
2023-05-18T17:57:02.228Z,48.14
2023-05-18T18:02:04.645Z,48.99
2023-05-18T18:07:07.372Z,50.68
2023-05-18T18:12:09.741Z,50.50
2023-05-18T18:17:11.984Z,50.41
2023-05-18T18:22:14.277Z,50.41
2023-05-18T18:27:19.818Z,50.38
2023-05-18T18:32:22.181Z,50.61
2023-05-18T18:37:24.348Z,51.49
2023-05-18T18:42:26.529Z,51.15
2023-05-18T18:47:28.896Z,51.07
2023-05-18T18:52:31.235Z,51.33
2023-05-18T18:57:34.193Z,51.91
2023-05-18T19:02:36.622Z,52.01
2023-05-18T19:07:38.903Z,51.62
2023-05-18T19:12:44.144Z,51.64
2023-05-18T19:17:46.746Z,51.97
2023-05-18T19:22:49.036Z,52.11
2023-05-18T19:27:54.927Z,51.78
2023-05-18T19:32:57.384Z,51.38
2023-05-18T19:38:00.858Z,51.29
2023-05-18T19:43:03.290Z,51.62
2023-05-18T19:48:06.011Z,51.77
2023-05-18T19:53:08.306Z,51.68
2023-05-18T19:58:10.722Z,51.74
2023-05-18T20:03:14.866Z,53.20
2023-05-18T20:08:17.188Z,52.70
2023-05-18T20:13:19.664Z,53.11
2023-05-18T20:18:22.261Z,52.75
2023-05-18T20:23:24.983Z,53.06
2023-05-18T20:28:28.204Z,53.39
2023-05-18T20:33:30.614Z,53.54
2023-05-18T20:38:32.990Z,54.02
2023-05-18T20:43:37.995Z,54.11
2023-05-18T20:48:40.632Z,54.00
2023-05-18T20:53:44.252Z,52.84
2023-05-18T20:58:49.016Z,52.59
2023-05-18T21:03:51.376Z,52.54
2023-05-18T21:08:53.749Z,52.59
2023-05-18T21:13:56.048Z,52.38
2023-05-18T21:18:58.383Z,53.27
2023-05-18T21:24:01.669Z,53.78
2023-05-18T21:29:03.909Z,53.74
2023-05-18T21:34:11.662Z,54.10
2023-05-18T21:39:14.169Z,54.62
2023-05-18T21:44:17.406Z,55.30
2023-05-18T21:49:19.644Z,55.72
2023-05-18T21:54:22.011Z,55.71
2023-05-18T21:59:24.365Z,55.71
2023-05-18T22:04:27.206Z,55.83
2023-05-18T22:09:29.970Z,55.78
2023-05-18T22:14:33.262Z,56.19
2023-05-18T22:19:35.649Z,56.04
2023-05-18T22:24:37.862Z,54.99
2023-05-18T22:29:40.129Z,54.93
2023-05-18T22:34:42.361Z,54.60
2023-05-18T22:39:44.862Z,55.28
2023-05-18T22:44:47.187Z,54.70
2023-05-18T22:49:50.064Z,54.55
2023-05-18T22:54:52.554Z,53.90
2023-05-18T22:59:54.917Z,53.83
2023-05-18T23:04:57.752Z,53.97
2023-05-18T23:09:59.978Z,53.94
2023-05-18T23:15:03.031Z,53.56
2023-05-18T23:20:08.742Z,53.44
2023-05-18T23:25:11.502Z,53.86
2023-05-18T23:30:13.972Z,53.58
2023-05-18T23:35:16.921Z,53.67
2023-05-18T23:40:19.889Z,53.46
2023-05-18T23:45:22.478Z,54.50
2023-05-18T23:50:25.036Z,54.95
2023-05-18T23:55:28.361Z,55.39
